Dupont, Ohio
Current Conditions -  °F | °C
As of 10:53 AM on Saturday 25 Oct 2014 (Local Time) from KDFI Reporting Station
Haze Haze  
Wind Chill: 59°   Ceiling: 1000
Heat Index: 59°   Visibility: 5mi
Dew Point: 54°   Wind: 9mph
Humidity: 83%   Direction: 230°SW
Pressure: 29.88"   Gusts: NA
Location:  41.06°N, 84.3°W
Report Text: KDFI 251453Z AUTO 23008KT 5SM HZ OVC010 15/12 A2988 RMK AO2 SLP119 T01500122 58009
Loading
Personal Weather Stations






























Interactive Weather Map
Tropical Storm Tracking
New forecast layout! Learn more

10-Day Weather Forecast

Advertisements
Track Severe Weather on mobile